Terminal Aerodrome Forecast
Issued by NWS Tulsa, OK

Home | Current Version | Previous Version | Text Only | Print | Product List | Glossary On
Versions: 1 2 3 4 5 6 7 8 9 10 11 12 13 14 15 16
000
FTUS44 KTSA 200500
TAFTUL
TAF
KTUL 200538Z 2006/2106 13003KT P6SM SKC
      TEMPO 2009/2013 4SM BR SCT025
     FM201500 19008KT P6SM BKN050
     FM210100 17005KT P6SM SCT250=

USA.gov is the U.S. government's official web portal to all federal, state and local government web resources and services.